»·PEaware :: N801EH KBLU-KSNS

N801EH :: KBLU-KSNS

FLIGHT INFORMATION

Flight Status: Arrived
Operator: Privately registered:
United States
More flights under this callsign
Pilot: Evan H. (11904)
Aircraft: BEECH AIRCRAFT BARON
(BE58)
More flights by this aircraft type
Origin: KBLU Blue Canyon-Nyack
United States
Destination: KSNS Salinas Mun
United States
More flights between these airports :: More routes between these airports
Route: +AUDIO LIN V113 MOD V111 SNS
File this flight plan on PilotEdge
Remarks: VFR departure, IFR enroute
Altitude:
(Current/Filed)
10,000ft
Speed:
(Current/Filed)
185kts
Departed: 14-May-18 01:42 PM
Arrived: 14-May-18 02:56 PM
Distance/Time
Traveled:
162nm/1:14
Distance/Time
To Go:
Arrived

Flight Plot

Page will automatically refresh every two minutes.


Map Options




Map Legend


Flown Route
Filed Route
Departure Airport
Arrival Airport
Navaid (VOR, NDB)
Fix

Horizontal Profiles

Position Reports

Time Latitude Longitude Heading Altitude Ground
Speed
14-May-18 13:22 39.274406 -120.709196 217 5261ft 0kts
14-May-18 13:23 39.274406 -120.709196 217 5261ft 0kts
14-May-18 13:24 39.274406 -120.709196 217 5261ft 0kts
14-May-18 13:25 39.274406 -120.709196 217 5261ft 0kts
14-May-18 13:26 39.274352 -120.709248 213 5261ft 0kts
14-May-18 13:27 39.274352 -120.709248 213 5261ft 0kts
14-May-18 13:28 39.274352 -120.709248 213 5261ft 0kts
14-May-18 13:29 39.274352 -120.709248 213 5261ft 0kts
14-May-18 13:30 39.274352 -120.709248 213 5261ft 0kts
14-May-18 13:31 39.274352 -120.709248 213 5261ft 0kts
14-May-18 13:32 39.274352 -120.709248 213 5261ft 0kts
14-May-18 13:33 39.274352 -120.709248 213 5261ft 0kts
14-May-18 13:34 39.274352 -120.709248 213 5261ft 0kts
14-May-18 13:35 39.274352 -120.709248 213 5261ft 0kts
14-May-18 13:36 39.274352 -120.709248 213 5261ft 0kts
14-May-18 13:37 39.274352 -120.709248 213 5261ft 0kts
14-May-18 13:38 39.274352 -120.709248 213 5261ft 0kts
14-May-18 13:39 39.274352 -120.709248 213 5261ft 0kts
14-May-18 13:40 39.274063 -120.709768 335 5261ft 3kts
14-May-18 13:41 39.278638 -120.710787 349 5273ft 33kts
14-May-18 13:42 39.268332 -120.707866 164 5302ft 119kts
14-May-18 13:43 39.241318 -120.730241 251 6488ft 138kts
14-May-18 13:44 39.226021 -120.777035 247 7444ft 151kts
14-May-18 13:45 39.191891 -120.819960 219 7537ft 185kts
14-May-18 13:46 39.152051 -120.859945 197 8006ft 179kts
14-May-18 13:47 39.108412 -120.882369 216 8619ft 172kts
14-May-18 13:48 39.071024 -120.919883 218 9224ft 169kts
14-May-18 13:49 39.034411 -120.957487 218 9835ft 168kts
14-May-18 13:50 38.996027 -120.996799 218 10024ft 187kts
14-May-18 13:51 38.954351 -121.039457 219 10020ft 195kts
14-May-18 13:52 38.901767 -121.045814 176 10019ft 194kts
14-May-18 13:53 38.859460 -121.043638 177 10017ft 193kts
14-May-18 13:54 38.805973 -121.040892 177 10023ft 191kts
14-May-18 13:55 38.753689 -121.038404 175 10053ft 186kts
14-May-18 13:56 38.702398 -121.035650 175 10057ft 185kts
14-May-18 13:57 38.651102 -121.033015 175 10051ft 185kts
14-May-18 13:58 38.599570 -121.030393 175 10046ft 185kts
14-May-18 13:59 38.548240 -121.027786 175 10040ft 185kts
14-May-18 14:00 38.497063 -121.025187 175 10040ft 184kts
14-May-18 14:01 38.445634 -121.022574 175 10041ft 185kts
14-May-18 14:02 38.394357 -121.019985 175 10041ft 185kts
14-May-18 14:03 38.343048 -121.017390 175 10041ft 185kts
14-May-18 14:04 38.291529 -121.014791 175 10041ft 185kts
14-May-18 14:05 38.240080 -121.012199 175 10041ft 185kts
14-May-18 14:06 38.187887 -121.009496 177 10042ft 191kts
14-May-18 14:07 38.134514 -121.006908 176 10039ft 192kts
14-May-18 14:08 38.081367 -121.004250 176 10037ft 191kts
14-May-18 14:09 38.028495 -120.999114 173 10037ft 191kts
14-May-18 14:10 37.975407 -120.993613 174 10037ft 191kts
14-May-18 14:11 37.922384 -120.988143 174 10037ft 192kts
14-May-18 14:12 37.871092 -120.982886 174 10035ft 191kts
14-May-18 14:13 37.821708 -120.977815 174 10036ft 191kts
14-May-18 14:14 37.769007 -120.972404 174 10036ft 190kts
14-May-18 14:15 37.716553 -120.967019 174 10035ft 190kts
14-May-18 14:16 37.663860 -120.961620 174 10036ft 190kts
14-May-18 14:17 37.612643 -120.968383 206 10038ft 191kts
14-May-18 14:18 37.565640 -120.999843 208 10036ft 192kts
14-May-18 14:19 37.518664 -121.031657 208 10036ft 192kts
14-May-18 14:20 37.471377 -121.063662 207 10036ft 193kts
14-May-18 14:21 37.424089 -121.095622 207 10036ft 193kts
14-May-18 14:22 37.376772 -121.127554 207 10037ft 194kts
14-May-18 14:23 37.329890 -121.159112 208 10020ft 194kts
14-May-18 14:24 37.282739 -121.190875 208 9954ft 197kts
14-May-18 14:25 37.232967 -121.224290 208 9371ft 205kts
14-May-18 14:26 37.182285 -121.258263 209 8779ft 206kts
14-May-18 14:27 37.132849 -121.291334 210 8185ft 201kts
14-May-18 14:28 37.085763 -121.322862 210 7776ft 183kts
14-May-18 14:29 37.041804 -121.352262 210 7085ft 177kts
14-May-18 14:30 36.997755 -121.381705 210 6386ft 190kts
14-May-18 14:31 36.952446 -121.412000 207 6064ft 170kts
14-May-18 14:32 36.912577 -121.438416 207 6067ft 158kts
14-May-18 14:33 36.876274 -121.462539 207 6074ft 157kts
14-May-18 14:34 36.837742 -121.488100 207 6077ft 157kts
14-May-18 14:35 36.802900 -121.510567 193 6072ft 158kts
14-May-18 14:36 36.771656 -121.489237 145 6083ft 161kts
14-May-18 14:37 36.735900 -121.455547 145 6084ft 161kts
14-May-18 14:38 36.700082 -121.421992 145 6088ft 161kts
14-May-18 14:39 36.663877 -121.388393 145 6092ft 166kts
14-May-18 14:40 36.626596 -121.353957 145 6092ft 167kts
14-May-18 14:41 36.589124 -121.319332 145 6091ft 168kts
14-May-18 14:42 36.551680 -121.284715 145 6092ft 168kts
14-May-18 14:43 36.514146 -121.250183 145 6095ft 167kts
14-May-18 14:44 36.474684 -121.230038 219 6106ft 166kts
14-May-18 14:45 36.447214 -121.277128 233 6100ft 169kts
14-May-18 14:46 36.420713 -121.325373 235 6100ft 169kts
14-May-18 14:47 36.419903 -121.378657 298 6103ft 177kts
14-May-18 14:48 36.445536 -121.432393 300 5551ft 186kts
14-May-18 14:49 36.483763 -121.465824 325 5145ft 159kts
14-May-18 14:50 36.522874 -121.496247 325 4073ft 165kts
14-May-18 14:51 36.555986 -121.522058 324 2687ft 133kts
14-May-18 14:52 36.586367 -121.545869 324 1388ft 129kts
14-May-18 14:53 36.616530 -121.569517 323 502ft 126kts
14-May-18 14:54 36.641068 -121.588574 321 504ft 113kts
14-May-18 14:55 36.664046 -121.606577 331 75ft 59kts
14-May-18 14:56 36.665796 -121.610946 189 74ft 6kts

Navigation Log

Ident Type
Flight plan parsing failed, navigation log unavailable